Latest Coastal Weather Observations for Wadeye (Port Keats)

IDD60701

Issued at 10:45 pm CST Saturday 26 July 2014 (issued every 10 minutes, with the page automatically refreshed every 10 minutes)

About coastal observations | Map of coastal stations | Coastal observations for NT | Marine services | Other Formats
Station Details ID: 014948 Name: PORT KEATS AIRPORT Lat: -14.25 Lon: 129.53 Height: 28.0 m
Data from the previous 72 hours. | See also: Recent months at Wadeye (Port Keats)
Date/Time
CST
Temp

°C
Wind Pressure Rain
since 9am
mm
Weather Cloud Vis
km
Sea
Height
m
Swell
Dir
 
Speed
knots
Gust
knots
hPa Trend Height
m
Period
s
Dir
26/10:30pm 22.1 S 2 6 1017.0 - 0.0 - - - - - - -
26/10:00pm 22.8 CALM 0 0 1017.0 - 0.0 - - - - - - -
26/09:30pm 22.9 CALM 0 0 1017.0 - 0.0 - - - - - - -
26/09:00pm 23.1 WSW 1 5 1016.6 - 0.0 - - - - - - -
26/08:30pm 23.1 SSW 2 4 1016.5 - 0.0 - - - - - - -
26/08:00pm 23.9 SW 3 4 1016.1 - 0.0 - - - - - - -
26/07:30pm 24.1 SW 2 4 1016.1 - 0.0 - - - - - - -
26/07:00pm 24.4 SW 3 5 1015.8 - 0.0 - - - - - - -
26/06:30pm 25.3 WSW 4 7 1015.5 - 0.0 - - - - - - -
26/06:00pm 26.7 W 6 9 1015.0 - 0.0 - - - - - - -
26/05:30pm 27.8 W 6 9 1015.0 - 0.0 - - - - - - -
26/05:00pm 28.0 W 7 10 1014.7 - 0.0 - - - - - - -
26/04:30pm 28.3 WSW 8 11 1014.6 - 0.0 - - - - - - -
26/04:00pm 28.9 WSW 7 11 1014.7 - 0.0 - - - - - - -
26/03:30pm 28.9 W 7 12 1014.8 - 0.0 - - - - - - -
26/03:00pm 27.1 W 7 10 1014.8 - 0.0 - - - - - - -
26/02:30pm 31.6 E 6 12 1014.9 - 0.0 - - - - - - -
26/02:00pm 31.8 ESE 9 16 1015.2 - 0.0 - - - - - - -
26/01:30pm 31.3 ESE 10 16 1015.6 - 0.0 - - - - - - -
26/01:00pm 31.3 ENE 8 12 1016.1 - 0.0 - - - - - - -
26/12:30pm 30.8 NE 7 11 1016.6 - 0.0 - - - - - - -
26/12:00pm 29.4 NE 7 13 1016.9 - 0.0 - - - - - - -
26/11:30am 28.3 N 8 12 1017.6 - 0.0 - - - - - - -
26/11:00am 28.0 ENE 7 11 1018.0 - 0.0 - - - - - - -
26/10:30am 27.3 ENE 9 13 1018.1 - 0.0 - - - - - - -
26/10:00am 26.6 E 9 12 1018.0 - 0.0 - - - - - - -
26/09:30am 26.0 E 8 13 1018.0 - 0.0 - - - - - - -
26/09:00am 25.0 ESE 8 11 1017.4 - 0.0 - - - - - - -
26/08:30am 23.8 SE 6 9 1017.3 - 0.0 - - - - - - -
26/08:00am 22.8 SE 7 9 1016.9 - 0.0 - - - - - - -
26/07:47am 22.3 SE 6 8 1016.8 - 0.0 - - - - - - -
26/07:30am 17.2 SE 5 6 1016.6 - 0.0 - - - - - - -
26/07:00am 17.2 SE 5 7 1016.6 - 0.0 - - - - - - -
26/06:30am 17.4 SSE 5 6 1016.5 - 0.0 - - - - - - -
26/06:00am 17.4 CALM 0 0 1016.1 - 0.0 - - - - - - -
26/05:30am 16.6 W 0 0 1015.9 - 0.0 - - - - - - -
26/05:00am 17.2 CALM 0 0 1015.7 - 0.0 - - - - - - -
26/04:30am 18.4 W 1 4 1015.6 - 0.0 - - - - - - -
26/04:00am 18.3 CALM 0 0 1015.6 - 0.0 - - - - - - -
26/03:30am 17.6 SSW 0 4 1015.6 - 0.0 - - - - - - -
26/03:00am 17.9 CALM 0 0 1015.7 - 0.0 - - - - - - -
26/02:30am 17.7 SE 1 3 1016.0 - 0.0 - - - - - - -
26/02:00am 18.2 ESE 1 3 1016.2 - 0.0 - - - - - - -
26/01:30am 18.1 ESE 1 4 1016.3 - 0.0 - - - - - - -
26/01:00am 18.8 CALM 0 0 1016.4 - 0.0 - - - - - - -
26/12:30am 20.0 ENE 2 3 1016.5 - 0.0 - - - - - - -
26/12:00am 19.6 S 3 5 1016.1 - 0.0 - - - - - - -
 
Date/Time
CST
Temp

°C
Wind Pressure Rain
since 9am
mm
Weather Cloud Vis
km
Sea
Height
m
Swell
Dir
 
Speed
knots
Gust
knots
hPa Trend Height
m
Period
s
Dir
25/11:30pm 20.1 S 5 6 1016.4 - 0.0 - - - - - - -
25/11:00pm 18.9 ESE 2 5 1016.2 - 0.0 - - - - - - -
25/10:30pm 19.3 CALM 0 0 1016.3 - 0.0 - - - - - - -
25/10:00pm 19.6 CALM 0 0 1016.3 - 0.0 - - - - - - -
25/09:30pm 20.2 CALM 0 0 1016.4 - 0.0 - - - - - - -
25/09:00pm 20.8 CALM 0 0 1016.0 - 0.0 - - - - - - -
25/08:30pm 21.8 CALM 0 0 1015.8 - 0.0 - - - - - - -
25/08:00pm 23.1 CALM 0 3 1015.4 - 0.0 - - - - - - -
25/07:30pm 23.2 W 3 4 1014.9 - 0.0 - - - - - - -
25/07:00pm 23.8 W 4 5 1014.6 - 0.0 - - - - - - -
25/06:30pm 25.1 W 4 5 1014.5 - 0.0 - - - - - - -
25/06:00pm 26.6 NW 5 8 1014.0 - 0.0 - - - - - - -
25/05:30pm 27.3 NW 7 9 1014.0 - 0.0 - - - - - - -
25/05:00pm 28.3 W 6 9 1013.8 - 0.0 - - - - - - -
25/04:30pm 28.7 W 5 7 1013.8 - 0.0 - - - - - - -
25/04:00pm 28.5 NW 7 10 1013.8 - 0.0 - - - - - - -
25/03:30pm 29.5 W 7 9 1013.9 - 0.0 - - - - - - -
25/03:00pm 29.2 NW 8 11 1013.8 - 0.0 - - - - - - -
25/02:30pm 29.0 NNW 10 14 1014.2 - 0.0 - - - - - - -
25/02:00pm 29.9 NW 9 14 1014.5 - 0.0 - - - - - - -
25/01:30pm 29.2 NNW 8 11 1015.0 - 0.0 - - - - - - -
25/01:00pm 30.1 E 5 8 1015.6 - 0.0 - - - - - - -
25/12:30pm 29.8 S 3 7 1016.1 - 0.0 - - - - - - -
25/12:00pm 28.8 W 4 9 1016.4 - 0.0 - - - - - - -
25/11:30am 28.6 SW 5 6 1017.0 - 0.0 - - - - - - -
25/11:00am 27.6 SE 2 5 1017.2 - 0.0 - - - - - - -
25/10:30am 26.3 S 5 8 1017.1 - 0.0 - - - - - - -
25/10:00am 24.6 S 6 9 1017.1 - 0.0 - - - - - - -
25/09:30am 23.3 NNW 3 4 1017.0 - 0.0 - - - - - - -
25/09:00am 22.1 CALM 0 0 1016.6 - 0.0 - - - - - - -
25/08:30am 19.0 CALM 0 0 1016.4 - 0.0 - - - - - - -
25/08:00am 18.1 CALM 0 0 1015.9 - 0.0 - - - - - - -
25/07:30am 16.3 CALM 0 0 1015.5 - 0.0 - - - - - - -
25/07:00am 16.1 SSE 2 4 1014.8 - 0.0 - - - - - - -
25/06:30am 15.1 CALM 0 0 1014.3 - 0.0 - - - - - - -
25/06:00am 15.3 CALM 0 0 1014.0 - 0.0 - - - - - - -
25/05:30am 15.7 CALM 0 0 1014.1 - 0.0 - - - - - - -
25/05:00am 17.0 ENE 3 4 1013.9 - 0.0 - - - - - - -
25/04:30am 17.2 CALM 0 1 1013.8 - 0.0 - - - - - - -
25/04:00am 16.5 S 1 3 1013.7 - 0.0 - - - - - - -
25/03:30am 16.4 SSW 3 4 1014.0 - 0.0 - - - - - - -
25/03:00am 16.5 ESE 1 5 1014.1 - 0.0 - - - - - - -
25/02:30am 16.6 CALM 0 0 1014.3 - 0.0 - - - - - - -
25/02:00am 17.1 CALM 0 0 1014.3 - 0.0 - - - - - - -
25/01:30am 18.0 CALM 0 3 1014.2 - 0.0 - - - - - - -
25/01:00am 17.1 CALM 0 0 1014.1 - 0.0 - - - - - - -
25/12:30am 17.3 CALM 0 0 1014.2 - 0.0 - - - - - - -
25/12:00am 18.2 CALM 0 0 1014.0 - 0.0 - - - - - - -
 
Date/Time
CST
Temp

°C
Wind Pressure Rain
since 9am
mm
Weather Cloud Vis
km
Sea
Height
m
Swell
Dir
 
Speed
knots
Gust
knots
hPa Trend Height
m
Period
s
Dir
24/11:30pm 18.3 CALM 0 0 1014.3 - 0.0 - - - - - - -
24/11:00pm 18.3 CALM 0 0 1014.3 - 0.0 - - - - - - -
24/10:30pm 18.7 CALM 0 0 1014.2 - 0.0 - - - - - - -
24/10:00pm 19.4 CALM 0 0 1014.1 - 0.0 - - - - - - -
24/09:30pm 20.3 CALM 0 0 1013.9 - 0.0 - - - - - - -
24/09:00pm 20.5 SW 2 4 1013.5 - 0.0 - - - - - - -
24/08:30pm 21.5 CALM 0 0 1013.5 - 0.0 - - - - - - -
24/08:00pm 22.5 WNW 2 3 1013.3 - 0.0 - - - - - - -
24/07:30pm 23.3 CALM 0 2 1012.9 - 0.0 - - - - - - -
24/07:00pm 24.5 WSW 3 4 1012.5 - 0.0 - - - - - - -
24/06:30pm 25.7 W 5 6 1012.3 - 0.0 - - - - - - -
24/06:00pm 27.3 W 5 8 1012.1 - 0.0 - - - - - - -
24/05:30pm 28.0 W 6 8 1012.1 - 0.0 - - - - - - -
24/05:00pm 28.5 W 6 9 1012.1 - 0.0 - - - - - - -
24/04:30pm 28.6 W 6 11 1012.0 - 0.0 - - - - - - -
24/04:00pm 28.6 W 7 10 1011.9 - 0.0 - - - - - - -
24/03:30pm 28.8 W 8 12 1012.0 - 0.0 - - - - - - -
24/03:00pm 28.1 WNW 8 12 1012.0 - 0.0 - - - - - - -
24/02:30pm 29.3 NW 9 12 1012.6 - 0.0 - - - - - - -
24/02:00pm 29.0 NW 9 12 1013.1 - 0.0 - - - - - - -
24/01:30pm 28.7 NNW 7 10 1013.5 - 0.0 - - - - - - -
24/01:00pm 27.9 NNW 7 9 1013.9 - 0.0 - - - - - - -
24/12:30pm 29.3 NNW 4 7 1014.4 - 0.0 - - - - - - -
24/12:00pm 28.0 NNW 5 7 1014.7 - 0.0 - - - - - - -
24/11:30am 27.5 WSW 4 7 1015.3 - 0.0 - - - - - - -
24/11:00am 26.3 W 5 8 1015.3 - 0.0 - - - - - - -
24/10:30am 25.2 SSW 2 5 1015.3 - 0.0 - - - - - - -
24/10:00am 24.5 NW 2 6 1015.3 - 0.0 - - - - - - -
24/09:30am 24.1 CALM 0 3 1015.4 - 0.0 - - - - - - -
24/09:00am 21.5 CALM 0 0 1015.0 - 0.0 - - - - - - -
24/08:30am 19.0 CALM 0 0 1014.8 - 0.0 - - - - - - -
24/08:00am 17.4 ENE 2 3 1014.5 - 0.0 - - - - - - -
24/07:30am 15.8 CALM 0 0 1013.8 - 0.0 - - - - - - -
24/07:00am 15.9 CALM 0 0 1013.4 - 0.0 - - - - - - -
24/06:30am 15.2 CALM 0 0 1013.1 - 0.0 - - - - - - -
24/06:00am 15.4 CALM 0 0 1012.7 - 0.0 - - - - - - -
24/05:30am 15.5 CALM 0 0 1012.6 - 0.0 - - - - - - -
24/05:00am 15.9 CALM 0 0 1012.5 - 0.0 - - - - - - -
24/04:30am 15.7 SW 4 4 1012.4 - 0.0 - - - - - - -
24/04:00am 16.3 CALM 0 0 1012.2 - 0.0 - - - - - - -
24/03:30am 17.4 CALM 0 0 1012.3 - 0.0 - - - - - - -
24/03:00am 17.4 ESE 2 4 1012.4 - 0.0 - - - - - - -
24/02:30am 17.2 CALM 0 0 1012.9 - 0.0 - - - - - - -
24/02:00am 18.1 ENE 1 3 1013.1 - 0.0 - - - - - - -
24/01:30am 18.2 E 1 3 1013.2 - 0.0 - - - - - - -
24/01:00am 17.2 S 3 5 1013.4 - 0.0 - - - - - - -
24/12:30am 18.1 SSE 3 4 1013.4 - 0.0 - - - - - - -
24/12:00am 18.0 SSE 2 4 1013.3 - 0.0 - - - - - - -
 
Date/Time
CST
Temp

°C
Wind Pressure Rain
since 9am
mm
Weather Cloud Vis
km
Sea
Height
m
Swell
Dir
 
Speed
knots
Gust
knots
hPa Trend Height
m
Period
s
Dir
23/11:30pm 18.6 CALM 0 0 1013.4 - 0.0 - - - - - - -
23/11:00pm 18.8 CALM 0 0 1013.4 - 0.0 - - - - - - -

Other Formats:

Comma delimited format used in spreadsheet applications
http://www.bom.gov.au/fwo/IDD60701/IDD60701.95111.axf

JavaScript Object Notation format (JSON) in row-major order
http://www.bom.gov.au/fwo/IDD60701/IDD60701.95111.json